LTAG METAR and TAF | Updated Today

LTAG METAR

İncirlik Air Base

Observation time: 23 min. ago

LTAG 200720Z 04016KT CAVOK 25/06 Q1016 NOSIG RMK SKC

Need help? Read our tutorial on how to read METARs or read the parsed version below.

İncirlik Air Base (LTAG) METAR

  • Weather conditions on Fri, 20 May 2022 07:20:00 +0000 (23 min. ago):
  • Present conditions: Dry
  • Clouds: Clear skies
  • Visibility: Greater than 10 km
  • Wind: 40 degrees at 16 knots
  • Temperature: 25 celsius
  • Dew point: 6 celsius
  • Pressure: 1016 millibars
  • Remarks: SKC


Useful to know...

LTAG TAF

İncirlik Air Base

TAF LTAG 200440Z 2006/2106 03012KT CAVOK TEMPO 2013/2017 03015G25KT
Observation time: 3:03 hr. ago
Need help? Read our tutorial on how to read TAFs or read the parsed version below.

Parsed version of TAF for İncirlik Air Base (LTAG)

  • From 20 May at 06:00 UTC, to day 21 of the month at 06:00 UTC
  • Visibility: Greater than 10 km
  • Wind: 30 degrees at 12
  • Expected to arise temporarily, from 20 May at 13:00 UTC, to day 20 of the month at 17:00 UTC
  • Wind: 30 degrees at 15